sensor_id;sensor_type;location;lat;lon;timestamp;pressure;altitude;pressure_sealevel;temperature;humidity
79347;BME280;68815;48.810;44.482;2023-04-08T00:02:02;100901;;;7.6;57.3
79347;BME280;68815;48.810;44.482;2023-04-08T00:05:04;100898;;;7.5;57.9
79347;BME280;68815;48.810;44.482;2023-04-08T00:08:06;100899;;;7.3;58.6
79347;BME280;68815;48.810;44.482;2023-04-08T00:11:07;100900;;;7.2;59.1
79347;BME280;68815;48.810;44.482;2023-04-08T00:14:09;100901;;;7.2;59.4
79347;BME280;68815;48.810;44.482;2023-04-08T00:17:10;100890;;;7.2;59.7
79347;BME280;68815;48.810;44.482;2023-04-08T00:20:11;100894;;;7.1;60.3
79347;BME280;68815;48.810;44.482;2023-04-08T00:23:13;100898;;;7.2;60.1
79347;BME280;68815;48.810;44.482;2023-04-08T00:26:15;100892;;;7.2;60.2
79347;BME280;68815;48.810;44.482;2023-04-08T00:29:17;100904;;;7.2;60.3
79347;BME280;68815;48.810;44.482;2023-04-08T00:32:18;100903;;;7.2;60.7
79347;BME280;68815;48.810;44.482;2023-04-08T00:35:20;100910;;;7.1;61.2
79347;BME280;68815;48.810;44.482;2023-04-08T00:38:21;100907;;;7.1;61.5
79347;BME280;68815;48.810;44.482;2023-04-08T00:41:23;100914;;;7;61.6
79347;BME280;68815;48.810;44.482;2023-04-08T00:44:24;100921;;;6.9;62.2
79347;BME280;68815;48.810;44.482;2023-04-08T00:47:25;100931;;;7;62.3
79347;BME280;68815;48.810;44.482;2023-04-08T00:50:27;100937;;;6.9;62.3
79347;BME280;68815;48.810;44.482;2023-04-08T00:53:30;100930;;;6.8;62.9
79347;BME280;68815;48.810;44.482;2023-04-08T00:56:32;100939;;;6.9;63
79347;BME280;68815;48.810;44.482;2023-04-08T00:59:34;100937;;;6.9;62.9
79347;BME280;68815;48.810;44.482;2023-04-08T01:02:41;100945;;;6.9;62.9
79347;BME280;68815;48.810;44.482;2023-04-08T01:05:50;100931;;;6.8;63.7
79347;BME280;68815;48.810;44.482;2023-04-08T01:08:56;100943;;;6.7;64.1
79347;BME280;68815;48.810;44.482;2023-04-08T01:12:03;100942;;;6.8;63.8
79347;BME280;68815;48.810;44.482;2023-04-08T01:15:07;100945;;;6.8;64.2
79347;BME280;68815;48.810;44.482;2023-04-08T01:18:13;100955;;;6.7;64.7
79347;BME280;68815;48.810;44.482;2023-04-08T01:21:17;100945;;;6.6;64.8
79347;BME280;68815;48.810;44.482;2023-04-08T01:24:23;100940;;;6.5;65.4
79347;BME280;68815;48.810;44.482;2023-04-08T01:27:27;100940;;;6.6;65.3
79347;BME280;68815;48.810;44.482;2023-04-08T01:30:32;100945;;;6.4;66
79347;BME280;68815;48.810;44.482;2023-04-08T01:33:35;100936;;;6.4;66
79347;BME280;68815;48.810;44.482;2023-04-08T01:36:38;100941;;;6.4;66.3
79347;BME280;68815;48.810;44.482;2023-04-08T01:39:40;100947;;;6.4;66.2
79347;BME280;68815;48.810;44.482;2023-04-08T01:42:43;100951;;;6.3;66.8
79347;BME280;68815;48.810;44.482;2023-04-08T01:45:46;100935;;;6.2;67.2
79347;BME280;68815;48.810;44.482;2023-04-08T01:48:48;100940;;;6.2;67.2
79347;BME280;68815;48.810;44.482;2023-04-08T01:51:52;100938;;;6.1;67.8
79347;BME280;68815;48.810;44.482;2023-04-08T01:54:54;100953;;;6.2;67.6
79347;BME280;68815;48.810;44.482;2023-04-08T01:57:59;100961;;;6.1;68.2
79347;BME280;68815;48.810;44.482;2023-04-08T02:01:02;100968;;;6;68.5
79347;BME280;68815;48.810;44.482;2023-04-08T02:04:05;100973;;;6;68.5
79347;BME280;68815;48.810;44.482;2023-04-08T02:07:06;100985;;;5.7;69.6
79347;BME280;68815;48.810;44.482;2023-04-08T02:10:08;100979;;;5.7;70
79347;BME280;68815;48.810;44.482;2023-04-08T02:13:10;100981;;;5.7;69.9
79347;BME280;68815;48.810;44.482;2023-04-08T02:16:15;100986;;;5.7;70
79347;BME280;68815;48.810;44.482;2023-04-08T02:19:23;100983;;;5.8;69.7
79347;BME280;68815;48.810;44.482;2023-04-08T02:22:30;100990;;;5.6;70.1
79347;BME280;68815;48.810;44.482;2023-04-08T02:25:36;100991;;;5.5;70.6
79347;BME280;68815;48.810;44.482;2023-04-08T02:28:39;100986;;;5.6;70.4
79347;BME280;68815;48.810;44.482;2023-04-08T02:31:41;101011;;;5.5;70.6
79347;BME280;68815;48.810;44.482;2023-04-08T02:34:44;101005;;;5.5;70.6
79347;BME280;68815;48.810;44.482;2023-04-08T02:37:46;101008;;;5.3;71.2
79347;BME280;68815;48.810;44.482;2023-04-08T02:40:49;100999;;;5.1;72.1
79347;BME280;68815;48.810;44.482;2023-04-08T02:43:50;101008;;;5.1;71.9
79347;BME280;68815;48.810;44.482;2023-04-08T02:46:51;101018;;;5.1;72
79347;BME280;68815;48.810;44.482;2023-04-08T02:49:53;101008;;;5.2;71.7
79347;BME280;68815;48.810;44.482;2023-04-08T02:52:54;101015;;;5.2;71.5
79347;BME280;68815;48.810;44.482;2023-04-08T02:55:56;101011;;;5.3;71.2
79347;BME280;68815;48.810;44.482;2023-04-08T02:58:57;101020;;;5.1;71.7
79347;BME280;68815;48.810;44.482;2023-04-08T03:01:58;101027;;;5.4;70.8
79347;BME280;68815;48.810;44.482;2023-04-08T03:05:00;101030;;;5.3;70.9
79347;BME280;68815;48.810;44.482;2023-04-08T03:08:01;101035;;;5.2;71.5
79347;BME280;68815;48.810;44.482;2023-04-08T03:11:02;101035;;;5.2;71.1
79347;BME280;68815;48.810;44.482;2023-04-08T03:14:04;101035;;;5.4;70.5
79347;BME280;68815;48.810;44.482;2023-04-08T03:17:05;101034;;;5.5;70.1
79347;BME280;68815;48.810;44.482;2023-04-08T03:20:07;101034;;;5.2;71.2
79347;BME280;68815;48.810;44.482;2023-04-08T03:23:08;101027;;;5;71.7
79347;BME280;68815;48.810;44.482;2023-04-08T03:26:11;101037;;;5.3;70.7
79347;BME280;68815;48.810;44.482;2023-04-08T03:29:12;101042;;;5.3;70.3
79347;BME280;68815;48.810;44.482;2023-04-08T03:32:13;101056;;;5.1;70.9
79347;BME280;68815;48.810;44.482;2023-04-08T03:35:15;101046;;;5.4;69.9
79347;BME280;68815;48.810;44.482;2023-04-08T03:38:17;101058;;;5.7;68.8
79347;BME280;68815;48.810;44.482;2023-04-08T03:41:18;101047;;;5.5;68.9
79347;BME280;68815;48.810;44.482;2023-04-08T03:44:20;101056;;;5.7;68.4
79347;BME280;68815;48.810;44.482;2023-04-08T03:47:22;101052;;;5.7;68.7
79347;BME280;68815;48.810;44.482;2023-04-08T03:50:24;101054;;;5.8;67.8
79347;BME280;68815;48.810;44.482;2023-04-08T03:53:25;101058;;;5.9;67.6
79347;BME280;68815;48.810;44.482;2023-04-08T03:56:27;101045;;;5.9;67.2
79347;BME280;68815;48.810;44.482;2023-04-08T03:59:31;101057;;;6.1;66.4
79347;BME280;68815;48.810;44.482;2023-04-08T04:02:36;101055;;;5.8;67.4
79347;BME280;68815;48.810;44.482;2023-04-08T04:05:39;101058;;;6;66.6
79347;BME280;68815;48.810;44.482;2023-04-08T04:08:41;101062;;;5.9;67.3
79347;BME280;68815;48.810;44.482;2023-04-08T04:11:43;101069;;;5.9;66.7
79347;BME280;68815;48.810;44.482;2023-04-08T04:14:44;101069;;;5.8;67.2
79347;BME280;68815;48.810;44.482;2023-04-08T04:17:46;101092;;;5.8;66.8
79347;BME280;68815;48.810;44.482;2023-04-08T04:20:48;101061;;;6;66.3
79347;BME280;68815;48.810;44.482;2023-04-08T04:23:49;101074;;;6.2;65
79347;BME280;68815;48.810;44.482;2023-04-08T04:26:51;101072;;;6.7;64
79347;BME280;68815;48.810;44.482;2023-04-08T04:29:52;101085;;;7;62.4
79347;BME280;68815;48.810;44.482;2023-04-08T04:32:53;101086;;;6.9;62.5
79347;BME280;68815;48.810;44.482;2023-04-08T04:35:55;101079;;;6.7;63.1
79347;BME280;68815;48.810;44.482;2023-04-08T04:38:56;101090;;;7.2;61.8
79347;BME280;68815;48.810;44.482;2023-04-08T04:41:58;101096;;;7.5;60.9
79347;BME280;68815;48.810;44.482;2023-04-08T04:44:59;101104;;;7.3;61
79347;BME280;68815;48.810;44.482;2023-04-08T04:48:01;101101;;;8;59.2
79347;BME280;68815;48.810;44.482;2023-04-08T04:51:02;101119;;;8.1;58.2
79347;BME280;68815;48.810;44.482;2023-04-08T04:54:04;101125;;;7.3;59.6
79347;BME280;68815;48.810;44.482;2023-04-08T04:57:05;101130;;;7.5;59.9
79347;BME280;68815;48.810;44.482;2023-04-08T05:00:07;101134;;;7.3;60.4
79347;BME280;68815;48.810;44.482;2023-04-08T05:03:09;101120;;;7.5;59.9
79347;BME280;68815;48.810;44.482;2023-04-08T05:06:10;101118;;;8.7;57.5
79347;BME280;68815;48.810;44.482;2023-04-08T05:09:12;101113;;;8.5;56.7
79347;BME280;68815;48.810;44.482;2023-04-08T05:12:13;101114;;;8.6;56.2
79347;BME280;68815;48.810;44.482;2023-04-08T05:15:14;101133;;;8.1;57
79347;BME280;68815;48.810;44.482;2023-04-08T05:18:16;101120;;;8.8;56.1
79347;BME280;68815;48.810;44.482;2023-04-08T05:21:17;101140;;;8.3;56.9
79347;BME280;68815;48.810;44.482;2023-04-08T05:24:19;101147;;;8;57.3
79347;BME280;68815;48.810;44.482;2023-04-08T05:27:20;101141;;;8.1;57.7
79347;BME280;68815;48.810;44.482;2023-04-08T05:30:22;101135;;;8.6;56.3
79347;BME280;68815;48.810;44.482;2023-04-08T05:33:23;101136;;;8.5;56.8
79347;BME280;68815;48.810;44.482;2023-04-08T05:36:25;101138;;;8.7;56
79347;BME280;68815;48.810;44.482;2023-04-08T05:39:27;101140;;;8.4;56.5
79347;BME280;68815;48.810;44.482;2023-04-08T05:42:28;101165;;;8.4;56.3
79347;BME280;68815;48.810;44.482;2023-04-08T05:45:30;101158;;;8.7;55.5
79347;BME280;68815;48.810;44.482;2023-04-08T05:48:31;101140;;;9.1;54.5
79347;BME280;68815;48.810;44.482;2023-04-08T05:51:33;101164;;;9.5;53.4
79347;BME280;68815;48.810;44.482;2023-04-08T05:54:34;101177;;;9.8;51.7
79347;BME280;68815;48.810;44.482;2023-04-08T05:57:36;101168;;;9.2;53.7
79347;BME280;68815;48.810;44.482;2023-04-08T06:00:37;101174;;;9.7;53
79347;BME280;68815;48.810;44.482;2023-04-08T06:03:39;101189;;;9.3;53.4
79347;BME280;68815;48.810;44.482;2023-04-08T06:06:40;101176;;;10.1;52
79347;BME280;68815;48.810;44.482;2023-04-08T06:09:42;101191;;;10.4;50.1
79347;BME280;68815;48.810;44.482;2023-04-08T06:12:43;101194;;;10.1;50.7
79347;BME280;68815;48.810;44.482;2023-04-08T06:15:45;101179;;;11.1;49.1
79347;BME280;68815;48.810;44.482;2023-04-08T06:18:46;101185;;;10.8;49.6
79347;BME280;68815;48.810;44.482;2023-04-08T06:21:48;101177;;;10.9;49.9
79347;BME280;68815;48.810;44.482;2023-04-08T06:24:49;101200;;;12;46.7
79347;BME280;68815;48.810;44.482;2023-04-08T06:27:51;101196;;;10.9;48.4
79347;BME280;68815;48.810;44.482;2023-04-08T06:30:53;101196;;;10.8;49.7
79347;BME280;68815;48.810;44.482;2023-04-08T06:33:54;101193;;;10.5;50.2
79347;BME280;68815;48.810;44.482;2023-04-08T06:36:55;101189;;;10.9;49.9
79347;BME280;68815;48.810;44.482;2023-04-08T06:39:56;101195;;;10.5;50
79347;BME280;68815;48.810;44.482;2023-04-08T06:42:58;101209;;;9.8;52
79347;BME280;68815;48.810;44.482;2023-04-08T06:45:59;101183;;;10.7;50.6
79347;BME280;68815;48.810;44.482;2023-04-08T06:49:01;101205;;;10.8;49.3
79347;BME280;68815;48.810;44.482;2023-04-08T06:52:02;101184;;;11;49.3
79347;BME280;68815;48.810;44.482;2023-04-08T06:55:04;101208;;;10.5;50.5
79347;BME280;68815;48.810;44.482;2023-04-08T06:58:06;101196;;;10.9;49.7
79347;BME280;68815;48.810;44.482;2023-04-08T07:01:07;101199;;;10.9;49.5
79347;BME280;68815;48.810;44.482;2023-04-08T07:04:08;101205;;;10.9;49.5
79347;BME280;68815;48.810;44.482;2023-04-08T07:07:10;101200;;;10.9;49.7
79347;BME280;68815;48.810;44.482;2023-04-08T07:10:12;101189;;;11.2;49
79347;BME280;68815;48.810;44.482;2023-04-08T07:13:13;101220;;;10.9;49.4
79347;BME280;68815;48.810;44.482;2023-04-08T07:16:15;101203;;;10.8;49.2
79347;BME280;68815;48.810;44.482;2023-04-08T07:19:16;101209;;;10.9;49.5
79347;BME280;68815;48.810;44.482;2023-04-08T07:22:17;101197;;;10.8;49.6
79347;BME280;68815;48.810;44.482;2023-04-08T07:25:19;101183;;;11.3;48.8
79347;BME280;68815;48.810;44.482;2023-04-08T07:28:21;101194;;;11.2;48.6
79347;BME280;68815;48.810;44.482;2023-04-08T07:31:22;101203;;;10.7;49
79347;BME280;68815;48.810;44.482;2023-04-08T07:34:23;101224;;;11.2;48.9
79347;BME280;68815;48.810;44.482;2023-04-08T07:37:25;101188;;;11.5;50
79347;BME280;68815;48.810;44.482;2023-04-08T07:40:26;101195;;;12.1;47.8
79347;BME280;68815;48.810;44.482;2023-04-08T07:43:29;101201;;;11.3;48.3
79347;BME280;68815;48.810;44.482;2023-04-08T07:46:34;101223;;;11.2;48.8
79347;BME280;68815;48.810;44.482;2023-04-08T07:49:36;101220;;;11;48.9
79347;BME280;68815;48.810;44.482;2023-04-08T07:52:38;101203;;;11.3;49.2
79347;BME280;68815;48.810;44.482;2023-04-08T07:55:39;101203;;;11.2;48.5
79347;BME280;68815;48.810;44.482;2023-04-08T07:58:41;101199;;;11.1;49.2
79347;BME280;68815;48.810;44.482;2023-04-08T08:01:43;101216;;;11.5;48.3
79347;BME280;68815;48.810;44.482;2023-04-08T08:04:44;101204;;;11.8;47.7
79347;BME280;68815;48.810;44.482;2023-04-08T08:07:46;101205;;;11.6;48.2
79347;BME280;68815;48.810;44.482;2023-04-08T08:10:49;101221;;;11.2;47.8
79347;BME280;68815;48.810;44.482;2023-04-08T08:13:51;101211;;;11.2;48.3
79347;BME280;68815;48.810;44.482;2023-04-08T08:16:52;101207;;;11.7;47.9
79347;BME280;68815;48.810;44.482;2023-04-08T08:19:54;101213;;;11;48.4
79347;BME280;68815;48.810;44.482;2023-04-08T08:22:55;101218;;;10.9;49.6
79347;BME280;68815;48.810;44.482;2023-04-08T08:26:00;101215;;;11.1;48.7
79347;BME280;68815;48.810;44.482;2023-04-08T08:29:02;101231;;;11;48.6
79347;BME280;68815;48.810;44.482;2023-04-08T08:32:04;101199;;;11.4;48.7
79347;BME280;68815;48.810;44.482;2023-04-08T08:35:05;101208;;;11.6;48.4
79347;BME280;68815;48.810;44.482;2023-04-08T08:38:07;101202;;;11.6;48.2
79347;BME280;68815;48.810;44.482;2023-04-08T08:41:09;101215;;;11.4;48.2
79347;BME280;68815;48.810;44.482;2023-04-08T08:44:11;101214;;;11.4;48.5
79347;BME280;68815;48.810;44.482;2023-04-08T08:47:13;101211;;;11;49.3
79347;BME280;68815;48.810;44.482;2023-04-08T08:50:14;101190;;;11.3;48.5
79347;BME280;68815;48.810;44.482;2023-04-08T08:53:16;101206;;;11.3;48
79347;BME280;68815;48.810;44.482;2023-04-08T08:56:17;101216;;;11.4;48.6
79347;BME280;68815;48.810;44.482;2023-04-08T08:59:19;101270;;;11.1;48.6
79347;BME280;68815;48.810;44.482;2023-04-08T09:02:24;101233;;;11;49.1
79347;BME280;68815;48.810;44.482;2023-04-08T09:05:27;101222;;;11.1;48.8
79347;BME280;68815;48.810;44.482;2023-04-08T09:08:30;101228;;;11;48.9
79347;BME280;68815;48.810;44.482;2023-04-08T09:11:31;101237;;;11;49.3
79347;BME280;68815;48.810;44.482;2023-04-08T09:14:33;101228;;;10.7;49.8
79347;BME280;68815;48.810;44.482;2023-04-08T09:17:36;101209;;;10.7;50.1
79347;BME280;68815;48.810;44.482;2023-04-08T09:20:50;101229;;;10.6;50
79347;BME280;68815;48.810;44.482;2023-04-08T09:23:52;101218;;;10.6;49.7
79347;BME280;68815;48.810;44.482;2023-04-08T09:26:54;101222;;;10.5;50.3
79347;BME280;68815;48.810;44.482;2023-04-08T09:30:14;101217;;;10.7;49.8
79347;BME280;68815;48.810;44.482;2023-04-08T09:33:16;101213;;;10.9;50.1
79347;BME280;68815;48.810;44.482;2023-04-08T09:36:17;101209;;;11.2;49.6
79347;BME280;68815;48.810;44.482;2023-04-08T09:39:19;101212;;;11.1;49.5
79347;BME280;68815;48.810;44.482;2023-04-08T09:42:21;101220;;;11.1;49.6
79347;BME280;68815;48.810;44.482;2023-04-08T09:45:24;101219;;;10.9;49.4
79347;BME280;68815;48.810;44.482;2023-04-08T09:48:38;101242;;;11.1;49.1
79347;BME280;68815;48.810;44.482;2023-04-08T09:51:44;101233;;;11;49.1
79347;BME280;68815;48.810;44.482;2023-04-08T09:54:52;101249;;;10.9;49.1
79347;BME280;68815;48.810;44.482;2023-04-08T09:57:57;101243;;;11.1;49.7
79347;BME280;68815;48.810;44.482;2023-04-08T10:00:59;101227;;;11;49.3
79347;BME280;68815;48.810;44.482;2023-04-08T10:04:04;101250;;;10.9;48.9
79347;BME280;68815;48.810;44.482;2023-04-08T10:07:07;101236;;;10.9;49.9
79347;BME280;68815;48.810;44.482;2023-04-08T10:10:09;101240;;;11.1;48.7
79347;BME280;68815;48.810;44.482;2023-04-08T10:13:11;101250;;;11.1;49
79347;BME280;68815;48.810;44.482;2023-04-08T10:16:21;101234;;;11.3;48.6
79347;BME280;68815;48.810;44.482;2023-04-08T10:19:38;101237;;;11.3;48.2
79347;BME280;68815;48.810;44.482;2023-04-08T10:22:47;101241;;;11.2;48.4
79347;BME280;68815;48.810;44.482;2023-04-08T10:25:49;101236;;;11.3;48.1
79347;BME280;68815;48.810;44.482;2023-04-08T10:28:50;101248;;;11;48.3
79347;BME280;68815;48.810;44.482;2023-04-08T10:31:52;101264;;;11.1;48.8
79347;BME280;68815;48.810;44.482;2023-04-08T10:34:53;101249;;;11.1;48.5
79347;BME280;68815;48.810;44.482;2023-04-08T10:37:55;101258;;;11;48.7
79347;BME280;68815;48.810;44.482;2023-04-08T10:40:56;101257;;;11.1;48.5
79347;BME280;68815;48.810;44.482;2023-04-08T10:43:58;101267;;;11.4;47.9
79347;BME280;68815;48.810;44.482;2023-04-08T10:46:59;101247;;;11.1;48.6
79347;BME280;68815;48.810;44.482;2023-04-08T10:50:11;101266;;;11.2;48.3
79347;BME280;68815;48.810;44.482;2023-04-08T10:53:12;101264;;;11;48.5
79347;BME280;68815;48.810;44.482;2023-04-08T10:56:14;101264;;;11.2;48.8
79347;BME280;68815;48.810;44.482;2023-04-08T10:59:17;101242;;;11.1;48.1
79347;BME280;68815;48.810;44.482;2023-04-08T11:02:31;101255;;;11.1;47.7
79347;BME280;68815;48.810;44.482;2023-04-08T11:05:34;101278;;;11.2;48.1
79347;BME280;68815;48.810;44.482;2023-04-08T11:08:36;101265;;;11.1;48
79347;BME280;68815;48.810;44.482;2023-04-08T11:11:37;101262;;;10.9;48.1
79347;BME280;68815;48.810;44.482;2023-04-08T11:14:39;101263;;;10.6;48.7
79347;BME280;68815;48.810;44.482;2023-04-08T11:17:41;101283;;;11;48.5
79347;BME280;68815;48.810;44.482;2023-04-08T11:20:42;101254;;;10.9;48.2
79347;BME280;68815;48.810;44.482;2023-04-08T11:23:44;101266;;;10.8;48.5
79347;BME280;68815;48.810;44.482;2023-04-08T11:26:45;101268;;;10.8;48.5
79347;BME280;68815;48.810;44.482;2023-04-08T11:29:47;101290;;;10.9;48.4
79347;BME280;68815;48.810;44.482;2023-04-08T11:32:49;101277;;;10.8;48.2
79347;BME280;68815;48.810;44.482;2023-04-08T11:35:50;101274;;;10.9;48.4
79347;BME280;68815;48.810;44.482;2023-04-08T11:38:53;101274;;;10.7;48.7
79347;BME280;68815;48.810;44.482;2023-04-08T11:41:54;101265;;;10.8;48.3
79347;BME280;68815;48.810;44.482;2023-04-08T11:44:56;101280;;;10.6;48.4
79347;BME280;68815;48.810;44.482;2023-04-08T11:47:58;101284;;;10.8;48.4
79347;BME280;68815;48.810;44.482;2023-04-08T11:51:03;101283;;;10.7;48.6
79347;BME280;68815;48.810;44.482;2023-04-08T11:54:05;101291;;;10.7;48.5
79347;BME280;68815;48.810;44.482;2023-04-08T11:57:06;101276;;;10.7;48.7
79347;BME280;68815;48.810;44.482;2023-04-08T12:00:08;101319;;;10.6;48.7
79347;BME280;68815;48.810;44.482;2023-04-08T12:03:10;101299;;;10.7;48.5
79347;BME280;68815;48.810;44.482;2023-04-08T12:06:12;101289;;;10.5;48.7
79347;BME280;68815;48.810;44.482;2023-04-08T12:09:13;101303;;;10.5;48.8
79347;BME280;68815;48.810;44.482;2023-04-08T12:12:15;101290;;;10.4;49
79347;BME280;68815;48.810;44.482;2023-04-08T12:15:16;101297;;;10.5;48.8
79347;BME280;68815;48.810;44.482;2023-04-08T12:18:18;101295;;;10.4;48.7
79347;BME280;68815;48.810;44.482;2023-04-08T12:21:19;101282;;;10.3;49.3
79347;BME280;68815;48.810;44.482;2023-04-08T12:24:26;101307;;;10.5;49.2
79347;BME280;68815;48.810;44.482;2023-04-08T12:27:27;101323;;;10.2;49.6
79347;BME280;68815;48.810;44.482;2023-04-08T12:30:28;101312;;;10.1;49.7
79347;BME280;68815;48.810;44.482;2023-04-08T12:33:31;101310;;;10.1;49.7
79347;BME280;68815;48.810;44.482;2023-04-08T12:36:32;101306;;;10;50.1
79347;BME280;68815;48.810;44.482;2023-04-08T12:39:33;101302;;;10;50.3
79347;BME280;68815;48.810;44.482;2023-04-08T12:42:35;101311;;;9.8;50.5
79347;BME280;68815;48.810;44.482;2023-04-08T12:45:37;101327;;;9.6;50.7
79347;BME280;68815;48.810;44.482;2023-04-08T12:48:38;101311;;;9.6;51.1
79347;BME280;68815;48.810;44.482;2023-04-08T12:51:39;101329;;;9.5;51.3
79347;BME280;68815;48.810;44.482;2023-04-08T12:54:41;101319;;;9.4;51
79347;BME280;68815;48.810;44.482;2023-04-08T12:57:42;101321;;;9.3;51.6
79347;BME280;68815;48.810;44.482;2023-04-08T13:00:44;101305;;;9.4;51.2
79347;BME280;68815;48.810;44.482;2023-04-08T13:03:45;101316;;;9.3;51.3
79347;BME280;68815;48.810;44.482;2023-04-08T13:06:47;101320;;;9.4;51.4
79347;BME280;68815;48.810;44.482;2023-04-08T13:09:48;101314;;;9.2;51
79347;BME280;68815;48.810;44.482;2023-04-08T13:12:49;101319;;;9.1;51.6
79347;BME280;68815;48.810;44.482;2023-04-08T13:15:51;101354;;;9.1;51.7
79347;BME280;68815;48.810;44.482;2023-04-08T13:18:52;101323;;;8.9;51.9
79347;BME280;68815;48.810;44.482;2023-04-08T13:21:53;101344;;;8.7;52.2
79347;BME280;68815;48.810;44.482;2023-04-08T13:24:55;101338;;;8.6;52.6
79347;BME280;68815;48.810;44.482;2023-04-08T13:27:57;101336;;;8.6;52.5
79347;BME280;68815;48.810;44.482;2023-04-08T13:30:58;101330;;;8.6;52.8
79347;BME280;68815;48.810;44.482;2023-04-08T13:34:00;101328;;;8.3;53.5
79347;BME280;68815;48.810;44.482;2023-04-08T13:37:01;101336;;;8.2;53.5
79347;BME280;68815;48.810;44.482;2023-04-08T13:40:03;101337;;;8.3;53.3
79347;BME280;68815;48.810;44.482;2023-04-08T13:43:05;101359;;;8.1;53.1
79347;BME280;68815;48.810;44.482;2023-04-08T13:46:06;101352;;;8.1;53.2
79347;BME280;68815;48.810;44.482;2023-04-08T13:49:08;101343;;;7.9;54
79347;BME280;68815;48.810;44.482;2023-04-08T13:52:09;101357;;;7.9;54.2
79347;BME280;68815;48.810;44.482;2023-04-08T13:55:10;101336;;;7.8;54.5
79347;BME280;68815;48.810;44.482;2023-04-08T13:58:12;101336;;;7.7;54.7
79347;BME280;68815;48.810;44.482;2023-04-08T14:01:13;101326;;;7.6;54.9
79347;BME280;68815;48.810;44.482;2023-04-08T14:04:15;101339;;;7.6;55
79347;BME280;68815;48.810;44.482;2023-04-08T14:07:16;101329;;;7.3;55.9
79347;BME280;68815;48.810;44.482;2023-04-08T14:10:18;101336;;;7.3;55.6
79347;BME280;68815;48.810;44.482;2023-04-08T14:13:19;101340;;;7.2;55.8
79347;BME280;68815;48.810;44.482;2023-04-08T14:16:20;101341;;;7.2;56
79347;BME280;68815;48.810;44.482;2023-04-08T14:19:22;101362;;;7;56.4
79347;BME280;68815;48.810;44.482;2023-04-08T14:22:23;101356;;;7;56.4
79347;BME280;68815;48.810;44.482;2023-04-08T14:25:25;101344;;;7.1;56.4
79347;BME280;68815;48.810;44.482;2023-04-08T14:28:26;101339;;;7.1;56.4
79347;BME280;68815;48.810;44.482;2023-04-08T14:31:27;101341;;;7;56.3
79347;BME280;68815;48.810;44.482;2023-04-08T14:34:29;101349;;;6.8;56.8
79347;BME280;68815;48.810;44.482;2023-04-08T14:37:30;101348;;;6.8;56.8
79347;BME280;68815;48.810;44.482;2023-04-08T14:40:31;101349;;;6.8;56.8
79347;BME280;68815;48.810;44.482;2023-04-08T14:43:33;101366;;;6.6;57.2
79347;BME280;68815;48.810;44.482;2023-04-08T14:46:34;101354;;;6.5;57.7
79347;BME280;68815;48.810;44.482;2023-04-08T14:49:36;101345;;;6.6;57.5
79347;BME280;68815;48.810;44.482;2023-04-08T14:52:38;101353;;;6.5;57.6
79347;BME280;68815;48.810;44.482;2023-04-08T14:55:39;101336;;;6.5;57.8
79347;BME280;68815;48.810;44.482;2023-04-08T14:58:40;101348;;;6.5;57.8
79347;BME280;68815;48.810;44.482;2023-04-08T15:01:42;101352;;;6.4;58.1
79347;BME280;68815;48.810;44.482;2023-04-08T15:04:43;101358;;;6.4;58.1
79347;BME280;68815;48.810;44.482;2023-04-08T15:07:44;101366;;;6.4;58.1
79347;BME280;68815;48.810;44.482;2023-04-08T15:10:46;101362;;;6.3;58.2
79347;BME280;68815;48.810;44.482;2023-04-08T15:13:47;101375;;;6.3;58.1
79347;BME280;68815;48.810;44.482;2023-04-08T15:16:48;101381;;;6.3;58.2
79347;BME280;68815;48.810;44.482;2023-04-08T15:19:50;101374;;;6.4;58.1
79347;BME280;68815;48.810;44.482;2023-04-08T15:22:51;101379;;;6.2;58.5
79347;BME280;68815;48.810;44.482;2023-04-08T15:25:54;101385;;;6.2;58.7
79347;BME280;68815;48.810;44.482;2023-04-08T15:28:56;101388;;;6.1;58.8
79347;BME280;68815;48.810;44.482;2023-04-08T15:31:58;101395;;;6.1;59
79347;BME280;68815;48.810;44.482;2023-04-08T15:34:59;101394;;;6.1;58.9
79347;BME280;68815;48.810;44.482;2023-04-08T15:38:01;101394;;;6;59.2
79347;BME280;68815;48.810;44.482;2023-04-08T15:41:02;101405;;;6;59.1
79347;BME280;68815;48.810;44.482;2023-04-08T15:44:04;101404;;;6;59.1
79347;BME280;68815;48.810;44.482;2023-04-08T15:47:05;101408;;;6;59
79347;BME280;68815;48.810;44.482;2023-04-08T15:50:07;101412;;;6;59
79347;BME280;68815;48.810;44.482;2023-04-08T15:53:09;101413;;;5.9;59.2
79347;BME280;68815;48.810;44.482;2023-04-08T15:56:12;101424;;;5.9;59.4
79347;BME280;68815;48.810;44.482;2023-04-08T15:59:13;101429;;;5.8;59.5
79347;BME280;68815;48.810;44.482;2023-04-08T16:02:15;101428;;;5.9;59.2
79347;BME280;68815;48.810;44.482;2023-04-08T16:05:16;101432;;;5.9;59.2
79347;BME280;68815;48.810;44.482;2023-04-08T16:08:18;101432;;;5.9;59
79347;BME280;68815;48.810;44.482;2023-04-08T16:11:19;101436;;;5.9;59.1
79347;BME280;68815;48.810;44.482;2023-04-08T16:14:20;101443;;;5.8;59.3
79347;BME280;68815;48.810;44.482;2023-04-08T16:17:22;101453;;;5.8;59.4
79347;BME280;68815;48.810;44.482;2023-04-08T16:20:23;101464;;;5.8;59.5
79347;BME280;68815;48.810;44.482;2023-04-08T16:23:25;101468;;;5.8;59.5
79347;BME280;68815;48.810;44.482;2023-04-08T16:26:26;101467;;;5.7;59.9
79347;BME280;68815;48.810;44.482;2023-04-08T16:29:28;101475;;;5.7;60.1
79347;BME280;68815;48.810;44.482;2023-04-08T16:32:29;101477;;;5.7;60.2
79347;BME280;68815;48.810;44.482;2023-04-08T16:35:31;101478;;;5.7;60.2
79347;BME280;68815;48.810;44.482;2023-04-08T16:38:32;101473;;;5.8;59.9
79347;BME280;68815;48.810;44.482;2023-04-08T16:41:34;101470;;;5.8;59.7
79347;BME280;68815;48.810;44.482;2023-04-08T16:44:35;101483;;;5.9;59.5
79347;BME280;68815;48.810;44.482;2023-04-08T16:47:37;101485;;;5.9;59.3
79347;BME280;68815;48.810;44.482;2023-04-08T16:50:38;101486;;;5.8;59.8
79347;BME280;68815;48.810;44.482;2023-04-08T16:53:40;101487;;;5.8;59.9
79347;BME280;68815;48.810;44.482;2023-04-08T16:56:41;101480;;;5.9;59.9
79347;BME280;68815;48.810;44.482;2023-04-08T16:59:43;101489;;;5.8;60.1